Current Weather

Lago Vista Tx/Rusty Allen

Lago Vista, Texas (KRYW)

Report from: Tuesday, September 27, 2022 12:35 AM UTC
Current time: Tuesday, September 27, 2022 1:18 AM UTC

Nearby weather
Weather history
Weather forecast

Temperature27.1°C (80.8°F)
Heat index26.6°C (79.8°F)
Dew point5.3°C (41.5°F)
Winds 6 kts (3.1 m/s, 6.9 mph) Northeast (40°)
Visibility10 mi. (16.1 km)
Altimeter30.07 in.Hg (1018 mB)
Relative humidity25 %
Density altitude1,360 ft. (414 m)
Remarks Fully automated report
Automated weather observing station with precipitation discriminator
Flight conditions Visual Meteorological Conditions
Raw dataKRYW 270035Z AUTO 04006KT 10SM 27/05 A3007 RMK AO2 T02710053
An unhandled exception has occurred. See browser dev tools for details. Reload 🗙